FDX083 OERK-OEDF
Flight info
| Callsign | FDX083 |
|---|---|
| Flight time | 0h 38m |
| Altitude | 27000 |
| Route | EGPIN1E EGPIN H744 ITUNI N687 MIBRA MIBRA2J |
| Aircraft | B737/M-NIL/C |
Departure
| Time | 2026-04-24 14:37 |
|---|---|
| Airport | King Khalid International Airport (OERK) |
Arrival
| Time | 2026-04-24 15:15 |
|---|---|
| Airport | King Fahd International Airport (OEDF) |
| Time | Latitude | Longitude | Altitude | Speed | Heading |
|---|---|---|---|---|---|
| 2026-04-24 14:12 | 24.97542 | 46.69509 | 2055 ft | 0 kts | 239° |
| 2026-04-24 14:24 | 24.97545 | 46.69515 | 2055 ft | 2 kts | 239° |
| 2026-04-24 14:24 | 24.97553 | 46.69529 | 2055 ft | 2 kts | 239° |
| 2026-04-24 14:24 | 24.97560 | 46.69542 | 2055 ft | 2 kts | 239° |
| 2026-04-24 14:24 | 24.97567 | 46.69555 | 2054 ft | 2 kts | 239° |
| 2026-04-24 14:25 | 24.97576 | 46.69571 | 2054 ft | 2 kts | 239° |
| 2026-04-24 14:25 | 24.97583 | 46.69584 | 2054 ft | 2 kts | 239° |
| 2026-04-24 14:25 | 24.97587 | 46.69593 | 2054 ft | 1 kts | 239° |
| 2026-04-24 14:25 | 24.97596 | 46.69604 | 2053 ft | 2 kts | 215° |
| 2026-04-24 14:26 | 24.97609 | 46.69611 | 2053 ft | 2 kts | 194° |
| 2026-04-24 14:26 | 24.97624 | 46.69613 | 2053 ft | 2 kts | 172° |
| 2026-04-24 14:26 | 24.97636 | 46.69609 | 2053 ft | 0 kts | 154° |
| 2026-04-24 14:26 | 24.97641 | 46.69606 | 2053 ft | 0 kts | 149° |
| 2026-04-24 14:28 | 24.97645 | 46.69604 | 2053 ft | 0 kts | 113° |
| 2026-04-24 14:28 | 24.97647 | 46.69590 | 2054 ft | 2 kts | 98° |
| 2026-04-24 14:28 | 24.97648 | 46.69582 | 2054 ft | 0 kts | 137° |
| 2026-04-24 14:29 | 24.97654 | 46.69578 | 2054 ft | 0 kts | 150° |
| 2026-04-24 14:32 | 24.97652 | 46.69579 | 2054 ft | 0 kts | 149° |
| 2026-04-24 14:32 | 24.97643 | 46.69585 | 2054 ft | 2 kts | 149° |
| 2026-04-24 14:32 | 24.97628 | 46.69595 | 2054 ft | 3 kts | 149° |
| 2026-04-24 14:33 | 24.97605 | 46.69610 | 2053 ft | 4 kts | 149° |
| 2026-04-24 14:33 | 24.97576 | 46.69629 | 2053 ft | 5 kts | 149° |
| 2026-04-24 14:33 | 24.97534 | 46.69655 | 2052 ft | 9 kts | 150° |
| 2026-04-24 14:33 | 24.97475 | 46.69693 | 2051 ft | 12 kts | 148° |
| 2026-04-24 14:34 | 24.97447 | 46.69787 | 2047 ft | 9 kts | 63° |
| 2026-04-24 14:34 | 24.97448 | 46.69790 | 2047 ft | 0 kts | 60° |
| 2026-04-24 14:34 | 24.97461 | 46.69814 | 2046 ft | 7 kts | 60° |
| 2026-04-24 14:35 | 24.97487 | 46.69863 | 2046 ft | 0 kts | 60° |
| 2026-04-24 14:35 | 24.97498 | 46.69886 | 2046 ft | 9 kts | 60° |
| 2026-04-24 14:35 | 24.97553 | 46.69988 | 2047 ft | 21 kts | 59° |
| 2026-04-24 14:36 | 24.97618 | 46.70176 | 2046 ft | 30 kts | 96° |
| 2026-04-24 14:36 | 24.97511 | 46.70309 | 2046 ft | 0 kts | 149° |
| 2026-04-24 14:36 | 24.97481 | 46.70329 | 2046 ft | 26 kts | 150° |
| 2026-04-24 14:36 | 24.97098 | 46.70569 | 2041 ft | 98 kts | 150° |
| 2026-04-24 14:37 | 24.96316 | 46.71064 | 2037 ft | 161 kts | 150° |
| 2026-04-24 14:37 | 24.95199 | 46.71780 | 2173 ft | 204 kts | 151° |
| 2026-04-24 14:37 | 24.93954 | 46.72726 | 2597 ft | 231 kts | 135° |
| 2026-04-24 14:37 | 24.92697 | 46.73871 | 3210 ft | 250 kts | 144° |
| 2026-04-24 14:38 | 24.91298 | 46.75097 | 3902 ft | 268 kts | 141° |
| 2026-04-24 14:38 | 24.89990 | 46.76541 | 4520 ft | 287 kts | 126° |
| 2026-04-24 14:38 | 24.89112 | 46.78559 | 5165 ft | 306 kts | 106° |
| 2026-04-24 14:38 | 24.88848 | 46.80942 | 5858 ft | 323 kts | 88° |
| 2026-04-24 14:39 | 24.89260 | 46.83371 | 6498 ft | 330 kts | 71° |
| 2026-04-24 14:39 | 24.90340 | 46.85625 | 7082 ft | 332 kts | 53° |
| 2026-04-24 14:39 | 24.91738 | 46.87634 | 7640 ft | 334 kts | 60° |
| 2026-04-24 14:39 | 24.92795 | 46.89900 | 8213 ft | 336 kts | 64° |
| 2026-04-24 14:40 | 24.93827 | 46.92225 | 8829 ft | 339 kts | 64° |
| 2026-04-24 14:40 | 24.94850 | 46.94533 | 9400 ft | 342 kts | 64° |
| 2026-04-24 14:40 | 24.95897 | 46.96897 | 9971 ft | 345 kts | 64° |
| 2026-04-24 14:40 | 24.96946 | 46.99265 | 10521 ft | 347 kts | 64° |
| 2026-04-24 14:41 | 24.98002 | 47.01651 | 11056 ft | 350 kts | 64° |
| 2026-04-24 14:41 | 24.99079 | 47.04085 | 11588 ft | 352 kts | 64° |
| 2026-04-24 14:41 | 25.00155 | 47.06518 | 12106 ft | 354 kts | 64° |
| 2026-04-24 14:41 | 25.01280 | 47.08946 | 12780 ft | 359 kts | 59° |
| 2026-04-24 14:42 | 25.02619 | 47.11119 | 13555 ft | 363 kts | 55° |
| 2026-04-24 14:42 | 25.04089 | 47.13383 | 14271 ft | 369 kts | 54° |
| 2026-04-24 14:42 | 25.05582 | 47.15680 | 15025 ft | 372 kts | 55° |
| 2026-04-24 14:42 | 25.07097 | 47.18013 | 15727 ft | 377 kts | 55° |
| 2026-04-24 14:43 | 25.08616 | 47.20355 | 16440 ft | 381 kts | 55° |
| 2026-04-24 14:43 | 25.10130 | 47.22690 | 17100 ft | 385 kts | 55° |
| 2026-04-24 14:43 | 25.11708 | 47.25123 | 17780 ft | 388 kts | 56° |
| 2026-04-24 14:43 | 25.13262 | 47.27522 | 18424 ft | 392 kts | 56° |
| 2026-04-24 14:44 | 25.14853 | 47.29980 | 19075 ft | 395 kts | 56° |
| 2026-04-24 14:44 | 25.16417 | 47.32395 | 19688 ft | 398 kts | 56° |
| 2026-04-24 14:44 | 25.18025 | 47.34882 | 20293 ft | 401 kts | 56° |
| 2026-04-24 14:44 | 25.19660 | 47.37411 | 20895 ft | 404 kts | 56° |
| 2026-04-24 14:45 | 25.21273 | 47.39908 | 21473 ft | 407 kts | 56° |
| 2026-04-24 14:45 | 25.22924 | 47.42463 | 22053 ft | 409 kts | 57° |
| 2026-04-24 14:45 | 25.24575 | 47.45021 | 22617 ft | 411 kts | 57° |
| 2026-04-24 14:45 | 25.26231 | 47.47588 | 23160 ft | 414 kts | 57° |
| 2026-04-24 14:46 | 25.27894 | 47.50169 | 23689 ft | 416 kts | 57° |
| 2026-04-24 14:46 | 25.29564 | 47.52760 | 24213 ft | 418 kts | 57° |
| 2026-04-24 14:46 | 25.31256 | 47.55388 | 24734 ft | 420 kts | 57° |
| 2026-04-24 14:46 | 25.32959 | 47.58034 | 25246 ft | 422 kts | 57° |
| 2026-04-24 14:47 | 25.34658 | 47.60675 | 25739 ft | 424 kts | 57° |
| 2026-04-24 14:47 | 25.36356 | 47.63315 | 26220 ft | 426 kts | 57° |
| 2026-04-24 14:47 | 25.37998 | 47.65871 | 26676 ft | 427 kts | 58° |
| 2026-04-24 14:47 | 25.39725 | 47.68567 | 26919 ft | 433 kts | 59° |
| 2026-04-24 14:48 | 25.41201 | 47.71502 | 26909 ft | 441 kts | 66° |
| 2026-04-24 14:48 | 25.42463 | 47.74444 | 26939 ft | 442 kts | 68° |
| 2026-04-24 14:48 | 25.43738 | 47.77527 | 26925 ft | 440 kts | 68° |
| 2026-04-24 14:48 | 25.44998 | 47.80608 | 26878 ft | 439 kts | 68° |
| 2026-04-24 14:49 | 25.46250 | 47.83681 | 26889 ft | 438 kts | 69° |
| 2026-04-24 14:49 | 25.47491 | 47.86732 | 26886 ft | 438 kts | 69° |
| 2026-04-24 14:49 | 25.48738 | 47.89800 | 26885 ft | 439 kts | 69° |
| 2026-04-24 14:49 | 25.49992 | 47.92887 | 26886 ft | 439 kts | 69° |
| 2026-04-24 14:50 | 25.51222 | 47.95921 | 26884 ft | 439 kts | 69° |
| 2026-04-24 14:50 | 25.52478 | 47.99014 | 26899 ft | 445 kts | 68° |
| 2026-04-24 14:50 | 25.53745 | 48.02139 | 26971 ft | 456 kts | 68° |
| 2026-04-24 14:50 | 25.55056 | 48.05374 | 27000 ft | 469 kts | 68° |
| 2026-04-24 14:51 | 25.56404 | 48.08703 | 27010 ft | 480 kts | 68° |
| 2026-04-24 14:51 | 25.57781 | 48.12102 | 26975 ft | 484 kts | 68° |
| 2026-04-24 14:51 | 25.59153 | 48.15492 | 26922 ft | 482 kts | 68° |
| 2026-04-24 14:51 | 25.60513 | 48.18854 | 26897 ft | 480 kts | 68° |
| 2026-04-24 14:52 | 25.61803 | 48.22048 | 26864 ft | 472 kts | 68° |
| 2026-04-24 14:52 | 25.63141 | 48.25363 | 26884 ft | 469 kts | 68° |
| 2026-04-24 14:52 | 25.64473 | 48.28668 | 26886 ft | 471 kts | 68° |
| 2026-04-24 14:52 | 25.65797 | 48.31957 | 26886 ft | 472 kts | 68° |
| 2026-04-24 14:53 | 25.67139 | 48.35287 | 26884 ft | 471 kts | 68° |
| 2026-04-24 14:53 | 25.68518 | 48.38512 | 26781 ft | 461 kts | 63° |
| 2026-04-24 14:53 | 25.70157 | 48.41547 | 26365 ft | 450 kts | 61° |
| 2026-04-24 14:53 | 25.71786 | 48.44423 | 25983 ft | 440 kts | 60° |
| 2026-04-24 14:54 | 25.73406 | 48.47259 | 25533 ft | 432 kts | 60° |
| 2026-04-24 14:54 | 25.74986 | 48.50021 | 25069 ft | 424 kts | 60° |
| 2026-04-24 14:54 | 25.76548 | 48.52750 | 24604 ft | 417 kts | 60° |
| 2026-04-24 14:54 | 25.78089 | 48.55444 | 24154 ft | 411 kts | 60° |
| 2026-04-24 14:55 | 25.79612 | 48.58108 | 23701 ft | 404 kts | 60° |
| 2026-04-24 14:55 | 25.81099 | 48.60710 | 23267 ft | 399 kts | 60° |
| 2026-04-24 14:55 | 25.82574 | 48.63292 | 22835 ft | 395 kts | 60° |
| 2026-04-24 14:55 | 25.83989 | 48.65773 | 22444 ft | 394 kts | 60° |
| 2026-04-24 14:56 | 25.85469 | 48.68366 | 22069 ft | 393 kts | 60° |
| 2026-04-24 14:56 | 25.86927 | 48.70923 | 21731 ft | 393 kts | 60° |
| 2026-04-24 14:56 | 25.88383 | 48.73478 | 21386 ft | 393 kts | 60° |
| 2026-04-24 14:56 | 25.89836 | 48.76029 | 21039 ft | 392 kts | 60° |
| 2026-04-24 14:57 | 25.91282 | 48.78567 | 20690 ft | 390 kts | 60° |
| 2026-04-24 14:57 | 25.92724 | 48.81102 | 20341 ft | 388 kts | 60° |
| 2026-04-24 14:57 | 25.94169 | 48.83643 | 19989 ft | 386 kts | 59° |
| 2026-04-24 14:57 | 25.95613 | 48.86111 | 19643 ft | 385 kts | 58° |
| 2026-04-24 14:58 | 25.97095 | 48.88604 | 19287 ft | 383 kts | 58° |
| 2026-04-24 14:58 | 25.98568 | 48.91081 | 18628 ft | 383 kts | 58° |
| 2026-04-24 14:58 | 25.99994 | 48.93478 | 17862 ft | 370 kts | 58° |
| 2026-04-24 14:58 | 26.01372 | 48.95794 | 17113 ft | 358 kts | 58° |
| 2026-04-24 14:59 | 26.02720 | 48.98063 | 16379 ft | 347 kts | 58° |
| 2026-04-24 14:59 | 26.04027 | 49.00262 | 15663 ft | 337 kts | 57° |
| 2026-04-24 14:59 | 26.05290 | 49.02387 | 14968 ft | 328 kts | 57° |
| 2026-04-24 14:59 | 26.06535 | 49.04485 | 14268 ft | 321 kts | 57° |
| 2026-04-24 15:00 | 26.07737 | 49.06511 | 13520 ft | 316 kts | 57° |
| 2026-04-24 15:00 | 26.08933 | 49.08528 | 12758 ft | 312 kts | 57° |
| 2026-04-24 15:00 | 26.10106 | 49.10506 | 12008 ft | 308 kts | 57° |
| 2026-04-24 15:00 | 26.11276 | 49.12479 | 11257 ft | 305 kts | 57° |
| 2026-04-24 15:01 | 26.12438 | 49.14437 | 10505 ft | 301 kts | 57° |
| 2026-04-24 15:01 | 26.13570 | 49.16349 | 9767 ft | 298 kts | 57° |
| 2026-04-24 15:01 | 26.14703 | 49.18263 | 9036 ft | 294 kts | 57° |
| 2026-04-24 15:01 | 26.15829 | 49.20166 | 8491 ft | 296 kts | 57° |
| 2026-04-24 15:02 | 26.16953 | 49.22067 | 7979 ft | 300 kts | 57° |
| 2026-04-24 15:02 | 26.18100 | 49.24007 | 7523 ft | 301 kts | 57° |
| 2026-04-24 15:02 | 26.19260 | 49.25970 | 7054 ft | 303 kts | 57° |
| 2026-04-24 15:02 | 26.20422 | 49.27936 | 6617 ft | 303 kts | 57° |
| 2026-04-24 15:03 | 26.21554 | 49.29853 | 6371 ft | 297 kts | 57° |
| 2026-04-24 15:03 | 26.22680 | 49.31762 | 6084 ft | 293 kts | 57° |
| 2026-04-24 15:03 | 26.23782 | 49.33628 | 5803 ft | 288 kts | 57° |
| 2026-04-24 15:03 | 26.24882 | 49.35493 | 5518 ft | 285 kts | 57° |
| 2026-04-24 15:04 | 26.25959 | 49.37320 | 5237 ft | 281 kts | 57° |
| 2026-04-24 15:04 | 26.26864 | 49.39185 | 4939 ft | 277 kts | 71° |
| 2026-04-24 15:04 | 26.27705 | 49.41108 | 4882 ft | 271 kts | 57° |
| 2026-04-24 15:04 | 26.28739 | 49.42881 | 4897 ft | 276 kts | 57° |
| 2026-04-24 15:05 | 26.29789 | 49.44674 | 4892 ft | 278 kts | 57° |
| 2026-04-24 15:05 | 26.30838 | 49.46466 | 4884 ft | 278 kts | 57° |
| 2026-04-24 15:05 | 26.31906 | 49.48289 | 4885 ft | 278 kts | 57° |
| 2026-04-24 15:05 | 26.32951 | 49.50074 | 4885 ft | 278 kts | 57° |
| 2026-04-24 15:06 | 26.33983 | 49.51893 | 4876 ft | 278 kts | 63° |
| 2026-04-24 15:06 | 26.34510 | 49.53932 | 4896 ft | 276 kts | 85° |
| 2026-04-24 15:06 | 26.34335 | 49.56060 | 4887 ft | 277 kts | 107° |
| 2026-04-24 15:06 | 26.33499 | 49.57985 | 4904 ft | 276 kts | 123° |
| 2026-04-24 15:07 | 26.32452 | 49.59795 | 4885 ft | 277 kts | 123° |
| 2026-04-24 15:07 | 26.31417 | 49.61573 | 4887 ft | 276 kts | 123° |
| 2026-04-24 15:07 | 26.30365 | 49.63380 | 4884 ft | 276 kts | 123° |
| 2026-04-24 15:07 | 26.29329 | 49.65160 | 4873 ft | 271 kts | 123° |
| 2026-04-24 15:08 | 26.28735 | 49.66180 | 4693 ft | 271 kts | 123° |
| 2026-04-24 15:08 | 26.26053 | 49.70787 | 3581 ft | 263 kts | 123° |
| 2026-04-24 15:08 | 26.25087 | 49.72448 | 3200 ft | 251 kts | 123° |
| 2026-04-24 15:09 | 26.24160 | 49.74046 | 2928 ft | 237 kts | 123° |
| 2026-04-24 15:09 | 26.23291 | 49.75543 | 2689 ft | 226 kts | 123° |
| 2026-04-24 15:09 | 26.22479 | 49.77019 | 2502 ft | 224 kts | 114° |
| 2026-04-24 15:09 | 26.22191 | 49.78704 | 2359 ft | 221 kts | 86° |
| 2026-04-24 15:10 | 26.22531 | 49.80351 | 2407 ft | 223 kts | 73° |
| 2026-04-24 15:10 | 26.22997 | 49.82011 | 2387 ft | 226 kts | 73° |
| 2026-04-24 15:10 | 26.23607 | 49.83618 | 2369 ft | 227 kts | 54° |
| 2026-04-24 15:10 | 26.24756 | 49.84786 | 2398 ft | 226 kts | 28° |
| 2026-04-24 15:11 | 26.26233 | 49.85292 | 2375 ft | 218 kts | 2° |
| 2026-04-24 15:11 | 26.27674 | 49.85030 | 2347 ft | 205 kts | 336° |
| 2026-04-24 15:11 | 26.28942 | 49.84454 | 2357 ft | 195 kts | 340° |
| 2026-04-24 15:11 | 26.30232 | 49.83967 | 2379 ft | 196 kts | 342° |
| 2026-04-24 15:12 | 26.31555 | 49.83514 | 2389 ft | 200 kts | 343° |
| 2026-04-24 15:12 | 26.34231 | 49.82661 | 2336 ft | 202 kts | 344° |
| 2026-04-24 15:12 | 26.35578 | 49.82243 | 2073 ft | 202 kts | 344° |
| 2026-04-24 15:13 | 26.36905 | 49.81832 | 1835 ft | 196 kts | 344° |
| 2026-04-24 15:13 | 26.38196 | 49.81433 | 1559 ft | 191 kts | 344° |
| 2026-04-24 15:13 | 26.39435 | 49.81051 | 1277 ft | 180 kts | 344° |
| 2026-04-24 15:13 | 26.40598 | 49.80692 | 1055 ft | 169 kts | 344° |
| 2026-04-24 15:14 | 26.41714 | 49.80350 | 807 ft | 167 kts | 345° |
| 2026-04-24 15:14 | 26.42819 | 49.80011 | 629 ft | 164 kts | 344° |
| 2026-04-24 15:14 | 26.43918 | 49.79668 | 408 ft | 162 kts | 344° |
| 2026-04-24 15:14 | 26.44983 | 49.79335 | 173 ft | 157 kts | 343° |
| 2026-04-24 15:15 | 26.46006 | 49.79022 | 80 ft | 146 kts | 343° |
| 2026-04-24 15:15 | 26.46903 | 49.78742 | 79 ft | 111 kts | 345° |
| 2026-04-24 15:15 | 26.47441 | 49.78574 | 79 ft | 59 kts | 344° |
| 2026-04-24 15:15 | 26.47769 | 49.78593 | 79 ft | 36 kts | 14° |
| 2026-04-24 15:16 | 26.47830 | 49.78610 | 79 ft | 0 kts | 14° |
| 2026-04-24 15:17 | 26.47831 | 49.78610 | 79 ft | 0 kts | 14° |
| 2026-04-24 15:18 | 26.47835 | 49.78611 | 79 ft | 3 kts | 14° |
| 2026-04-24 15:18 | 26.47888 | 49.78626 | 79 ft | 12 kts | 14° |
| 2026-04-24 15:18 | 26.47977 | 49.78702 | 79 ft | 21 kts | 71° |
| 2026-04-24 15:18 | 26.47998 | 49.78882 | 79 ft | 23 kts | 113° |
| 2026-04-24 15:19 | 26.47988 | 49.78901 | 79 ft | 1 kts | 128° |
| 2026-04-24 15:19 | 26.47959 | 49.78936 | 79 ft | 10 kts | 106° |
| 2026-04-24 15:19 | 26.47973 | 49.79016 | 79 ft | 0 kts | 80° |